This is the latest recevied weather packets stored in our database for station/object N1OTX. If no packets are shown the sender has not sent any weather packets the latest 10 day(s).
| Time | Temp. | Humidity | Pressure | Rain* | Wind** | Luminosity | Snow |
|---|---|---|---|---|---|---|---|
| 1778232928 | 3.33° C | 82% | 1009.2 hPa | 0 mm | - | 2 W/m² | - |
| 1778232328 | 3.33° C | 83% | 1009.2 hPa | 0 mm | - | 1 W/m² | - |
| 1778229629 | 2.78° C | 84% | 1009.1 hPa | 0 mm | - | 0 W/m² | - |
| 1778228128 | 2.78° C | 84% | 1008.8 hPa | 0 mm | - | 0 W/m² | - |
| 1778226027 | 3.33° C | 81% | 1008 hPa | 0 mm | - | 0 W/m² | - |
| 1778224229 | 3.89° C | 76% | 1007.7 hPa | 0 mm | - | 0 W/m² | - |
| 1778223629 | 4.44° C | 75% | 1007.7 hPa | 0 mm | - | 0 W/m² | - |
| 1778222128 | 5° C | 73% | 1007.7 hPa | 0 mm | - | 0 W/m² | - |
| 1778219727 | 5.56° C | 67% | 1007.9 hPa | 0 mm | - | 0 W/m² | - |
| 1778217028 | 6.11° C | 64% | 1008.2 hPa | 0 mm | - | 0 W/m² | - |
| 1778216127 | 6.67° C | 63% | 1008.2 hPa | 0 mm | - | 0 W/m² | - |
| 1778215307 | 6.67° C | 62% | 1008.3 hPa | 0 mm | - | 0 W/m² | - |
| 1778214646 | 6.67° C | 62% | 1008.2 hPa | 0 mm | - | 0 W/m² | - |
| 1778213128 | 7.22° C | 63% | 1008.3 hPa | 0 mm | - | 0 W/m² | - |
| 1778211627 | 7.22° C | 62% | 1008.2 hPa | 0 mm | - | 0 W/m² | - |
| 1778210146 | 7.78° C | 61% | 1008.3 hPa | 0 mm | - | 0 W/m² | - |
| 1778209228 | 7.78° C | 62% | 1008.2 hPa | 0 mm | - | 0 W/m² | - |
| 1778206829 | 8.33° C | 61% | 1008.1 hPa | 0 mm | - | 0 W/m² | - |
| 1778206529 | 8.33° C | 61% | 1008.1 hPa | 0 mm | - | 0 W/m² | - |
| 1778206228 | 8.89° C | 61% | 1008.2 hPa | 0 mm | - | 0 W/m² | - |
| 1778201728 | 11.11° C | 48% | 1007.4 hPa | 0 mm | - | 0 W/m² | - |
| 1778198728 | 12.78° C | 44% | 1006.7 hPa | 0 mm | - | 1 W/m² | - |
| 1778198170 | 13.33° C | 40% | 1006.6 hPa | 0 mm | - | 2 W/m² | - |
| 1778194828 | 15° C | 32% | 1006.1 hPa | 0 mm | - | 23 W/m² | - |
| 1778193328 | 15.56° C | 33% | 1005.8 hPa | 0 mm | - | 31 W/m² | - |
* Rain latest hour (hover to see other rain measurements)
** Current wind speed in m/s (hover to see current wind gust speed)